This is the latest recevied weather packets stored in our database for station/object W4SMH. If no packets are shown the sender has not sent any weather packets the latest 10 day(s).
| Time | Temp. | Humidity | Pressure | Rain* | Wind** | Luminosity | Snow |
|---|---|---|---|---|---|---|---|
| 1777588083 | 6.11° C | 80% | 1013.3 hPa | 0 mm | - | 83 W/m² | - |
| 1777586977 | 15.56° C | 62% | 1010.9 hPa | 0 mm | - | 0 W/m² | - |
| 1777586964 | 6.67° C | 80% | 1013.3 hPa | 0 mm | - | 84 W/m² | - |
| 1777586688 | 6.67° C | 79% | 1013.4 hPa | 0 mm | - | 127 W/m² | - |
| 1777586283 | 6.67° C | 78% | 1013.5 hPa | 0 mm | - | 142 W/m² | - |
| 1777586151 | 6.67° C | 78% | 1013.5 hPa | 0 mm | - | 148 W/m² | - |
| 1777585748 | 6.67° C | 78% | 1013.5 hPa | 0 mm | - | 174 W/m² | - |
| 1777585629 | 6.67° C | 77% | 1013.5 hPa | 0 mm | - | 153 W/m² | - |
| 1777585027 | 6.67° C | 76% | 1013.6 hPa | 0 mm | - | 167 W/m² | - |
| 1777584997 | 6.67° C | 75% | 1013.6 hPa | 0 mm | - | 165 W/m² | - |
| 1777584576 | 6.67° C | 75% | 1013.6 hPa | 0 mm | - | 128 W/m² | - |
| 1777583487 | 7.22° C | 74% | 1013.7 hPa | 0 mm | - | 148 W/m² | - |
| 1777582533 | 7.78° C | 74% | 1013.9 hPa | 0 mm | - | 176 W/m² | - |
| 1777582362 | 17.22° C | 54% | 1010.8 hPa | 0 mm | - | 40 W/m² | - |
| 1777582349 | 7.78° C | 73% | 1013.9 hPa | 0 mm | - | 188 W/m² | - |
| 1777582273 | 18.33° C | 52% | 1010.5 hPa | 0 mm | - | 142 W/m² | - |
| 1777582265 | 18.33° C | 52% | 1010.5 hPa | 0 mm | - | 162 W/m² | - |
| 1777582227 | 7.78° C | 74% | 1013.9 hPa | 0 mm | - | 207 W/m² | - |
| 1777582162 | 7.78° C | 73% | 1013.9 hPa | 0 mm | - | 260 W/m² | - |
| 1777582123 | 7.78° C | 74% | 1013.9 hPa | 0 mm | - | 297 W/m² | - |
| 1777581630 | 7.78° C | 74% | 1013.9 hPa | 0 mm | - | 301 W/m² | - |
| 1777581437 | 7.78° C | 74% | 1013.9 hPa | 0 mm | - | 376 W/m² | - |
| 1777580697 | 7.22° C | 78% | 1013.9 hPa | 0 mm | - | 573 W/m² | - |
| 1777580192 | 6.67° C | 78% | 1013.9 hPa | 0 mm | - | 513 W/m² | - |
| 1777580158 | 6.67° C | 78% | 1013.9 hPa | 0 mm | - | 418 W/m² | - |
* Rain latest hour (hover to see other rain measurements)
** Current wind speed in m/s (hover to see current wind gust speed)